createdAt,value
2018-03-02T00:02:02.676Z,6.75
2018-03-02T00:04:30.159Z,7.43
2018-03-02T00:06:58.393Z,6.55
2018-03-02T00:09:25.854Z,6.68
2018-03-02T00:11:53.336Z,7.37
2018-03-02T00:14:20.802Z,7.82
2018-03-02T00:16:48.258Z,6.97
2018-03-02T00:19:15.731Z,7.72
2018-03-02T00:21:44.843Z,7.40
2018-03-02T00:24:12.306Z,8.45
2018-03-02T00:26:39.778Z,8.15
2018-03-02T00:29:07.235Z,6.60
2018-03-02T00:31:34.755Z,7.30
2018-03-02T00:34:02.994Z,7.78
2018-03-02T00:36:30.458Z,7.75
2018-03-02T00:38:57.926Z,7.80
2018-03-02T00:41:25.398Z,7.68
2018-03-02T00:43:53.638Z,7.85
2018-03-02T00:46:21.116Z,7.55
2018-03-02T00:48:49.362Z,8.60
2018-03-02T00:51:17.595Z,7.37
2018-03-02T00:53:45.811Z,7.55
2018-03-02T00:56:13.307Z,8.18
2018-03-02T00:58:41.537Z,8.23
2018-03-02T01:01:09.015Z,8.63
2018-03-02T01:03:36.488Z,7.03
2018-03-02T01:06:03.957Z,7.95
2018-03-02T01:08:32.179Z,7.00
2018-03-02T01:10:59.659Z,8.00
2018-03-02T01:13:27.131Z,9.00
2018-03-02T01:15:54.587Z,7.65
2018-03-02T01:18:22.070Z,8.50
2018-03-02T01:20:49.527Z,9.93
2018-03-02T01:23:17.443Z,9.43
2018-03-02T01:25:45.726Z,7.90
2018-03-02T01:28:13.198Z,9.07
2018-03-02T01:30:40.655Z,8.70
2018-03-02T01:33:08.296Z,9.18
2018-03-02T01:35:35.759Z,8.38
2018-03-02T01:38:03.226Z,9.50
2018-03-02T01:40:30.719Z,8.00
2018-03-02T01:42:59.586Z,8.82
2018-03-02T01:45:28.758Z,8.52
2018-03-02T01:47:56.238Z,8.60
2018-03-02T01:50:25.283Z,9.23
2018-03-02T01:52:52.926Z,8.68
2018-03-02T01:55:20.397Z,8.98
2018-03-02T01:57:47.864Z,9.35
2018-03-02T02:00:19.038Z,9.15
2018-03-02T02:02:46.527Z,9.75
2018-03-02T02:05:14.764Z,10.20
2018-03-02T02:07:42.235Z,10.15
2018-03-02T02:10:09.723Z,8.60
2018-03-02T02:12:37.188Z,9.15
2018-03-02T02:15:04.651Z,9.57
2018-03-02T02:17:32.147Z,10.25
2018-03-02T02:19:59.616Z,10.85
2018-03-02T02:22:27.133Z,9.02
2018-03-02T02:24:54.605Z,11.07
2018-03-02T02:27:22.059Z,9.60
2018-03-02T02:29:49.568Z,9.60
2018-03-02T02:32:17.818Z,10.85
2018-03-02T02:34:45.299Z,10.82
2018-03-02T02:37:13.532Z,9.82
2018-03-02T02:39:41.016Z,8.93
2018-03-02T02:42:08.487Z,10.05
2018-03-02T02:44:36.712Z,8.93
2018-03-02T02:47:04.220Z,9.48
2018-03-02T02:49:32.435Z,9.98
2018-03-02T02:51:59.895Z,9.93
2018-03-02T02:54:27.422Z,9.60
2018-03-02T02:56:54.883Z,10.05
2018-03-02T02:59:22.351Z,10.25
2018-03-02T03:01:49.842Z,11.00
2018-03-02T03:04:17.311Z,10.88
2018-03-02T03:06:44.770Z,9.65
2018-03-02T03:09:12.251Z,10.85
2018-03-02T03:11:39.729Z,9.98
2018-03-02T03:14:07.193Z,10.60
2018-03-02T03:16:34.717Z,10.75
2018-03-02T03:19:02.942Z,11.02
2018-03-02T03:21:30.460Z,11.63
2018-03-02T03:23:57.938Z,11.40
2018-03-02T03:26:25.402Z,10.35
2018-03-02T03:28:52.866Z,10.57
2018-03-02T03:31:20.344Z,10.15
2018-03-02T03:33:47.822Z,12.15
2018-03-02T03:36:15.295Z,11.45
2018-03-02T03:38:43.550Z,11.23
2018-03-02T03:41:11.020Z,10.68
2018-03-02T03:43:39.265Z,11.48
2018-03-02T03:46:06.732Z,10.15
2018-03-02T03:48:34.208Z,10.90
2018-03-02T03:51:02.483Z,10.88
2018-03-02T03:53:30.734Z,10.88
2018-03-02T03:55:59.188Z,11.10
2018-03-02T03:58:26.694Z,12.00
2018-03-02T04:00:54.943Z,10.20
2018-03-02T04:03:22.435Z,12.00
2018-03-02T04:05:50.662Z,11.65
2018-03-02T04:08:18.144Z,10.70
2018-03-02T04:10:45.636Z,11.10
2018-03-02T04:13:13.112Z,12.07
2018-03-02T04:15:40.595Z,12.25
2018-03-02T04:18:08.077Z,12.32
2018-03-02T04:20:35.547Z,12.40
2018-03-02T04:23:03.815Z,11.63
2018-03-02T04:25:32.077Z,11.40
2018-03-02T04:27:59.546Z,12.90
2018-03-02T04:30:27.010Z,12.88
2018-03-02T04:32:55.253Z,12.75
2018-03-02T04:35:23.526Z,12.95
2018-03-02T04:37:51.013Z,11.40
2018-03-02T04:40:19.238Z,13.35
2018-03-02T04:42:46.699Z,14.75
2018-03-02T04:45:14.179Z,14.02
2018-03-02T04:47:41.651Z,12.88
2018-03-02T04:50:09.111Z,13.95
2018-03-02T04:52:36.613Z,12.82
2018-03-02T04:55:04.094Z,13.50
2018-03-02T04:57:31.560Z,12.15
2018-03-02T04:59:59.035Z,13.23
2018-03-02T05:02:27.290Z,14.38
2018-03-02T05:04:55.526Z,14.32
2018-03-02T05:07:22.998Z,14.10
2018-03-02T05:09:50.482Z,13.62
2018-03-02T05:12:18.815Z,13.73
2018-03-02T05:14:46.293Z,15.05
2018-03-02T05:17:13.774Z,13.20
2018-03-02T05:19:41.259Z,14.45
2018-03-02T05:22:09.511Z,14.52
2018-03-02T05:24:36.976Z,14.63
2018-03-02T05:27:06.234Z,14.55
2018-03-02T05:29:33.714Z,15.48
2018-03-02T05:32:02.223Z,13.85
2018-03-02T05:34:29.687Z,14.90
2018-03-02T05:36:57.166Z,14.93
2018-03-02T05:39:24.632Z,15.60
2018-03-02T05:41:52.107Z,14.18
2018-03-02T05:44:19.583Z,16.45
2018-03-02T05:46:47.040Z,14.45
2018-03-02T05:49:15.270Z,14.07
2018-03-02T05:51:43.391Z,14.75
2018-03-02T05:54:10.860Z,15.38
2018-03-02T05:56:38.326Z,15.13
2018-03-02T05:59:06.640Z,14.80
2018-03-02T06:01:34.109Z,13.55
2018-03-02T06:04:01.566Z,13.88
2018-03-02T06:06:29.052Z,14.70
2018-03-02T06:08:56.520Z,13.43
2018-03-02T06:11:23.985Z,15.05
2018-03-02T06:13:51.468Z,15.40
2018-03-02T06:16:18.930Z,15.23
2018-03-02T06:18:46.405Z,14.77
2018-03-02T06:21:13.895Z,14.30
2018-03-02T06:23:41.367Z,14.70
2018-03-02T06:26:08.821Z,15.82
2018-03-02T06:28:36.308Z,16.42
2018-03-02T06:31:04.538Z,14.80
2018-03-02T06:33:31.987Z,16.55
2018-03-02T06:35:59.463Z,15.30
2018-03-02T06:38:26.935Z,15.70
2018-03-02T06:40:55.171Z,15.40
2018-03-02T06:43:22.658Z,15.77
2018-03-02T06:45:50.157Z,15.85
2018-03-02T06:48:18.426Z,14.32
2018-03-02T06:50:45.931Z,16.95
2018-03-02T06:53:13.420Z,19.90
2018-03-02T06:55:41.638Z,17.83
2018-03-02T06:58:09.115Z,15.93
2018-03-02T07:00:36.614Z,15.85
2018-03-02T07:03:04.838Z,15.95
2018-03-02T07:05:32.328Z,17.25
2018-03-02T07:07:59.790Z,15.75
2018-03-02T07:10:27.253Z,16.90
2018-03-02T07:12:54.800Z,17.73
2018-03-02T07:15:22.267Z,17.12
2018-03-02T07:17:50.515Z,16.00
2018-03-02T07:20:18.838Z,16.75
2018-03-02T07:22:46.352Z,15.52
2018-03-02T07:25:13.820Z,16.92
2018-03-02T07:27:41.286Z,17.60
2018-03-02T07:30:09.510Z,16.67
2018-03-02T07:32:36.971Z,17.60
2018-03-02T07:35:04.454Z,17.35
2018-03-02T07:37:31.926Z,17.08
2018-03-02T07:39:59.391Z,16.48
2018-03-02T07:42:27.646Z,17.15
2018-03-02T07:44:55.108Z,17.90
2018-03-02T07:47:22.596Z,16.83
2018-03-02T07:49:50.085Z,18.65
2018-03-02T07:52:17.547Z,19.48
2018-03-02T07:54:45.025Z,17.90
2018-03-02T07:57:12.493Z,20.00
2018-03-02T07:59:39.966Z,17.12
2018-03-02T08:02:08.222Z,16.17
2018-03-02T08:04:35.715Z,19.10
2018-03-02T08:07:03.191Z,18.12
2018-03-02T08:09:30.681Z,18.60
2018-03-02T08:11:58.161Z,18.60
2018-03-02T08:14:25.680Z,18.73
2018-03-02T08:16:53.149Z,18.92
2018-03-02T08:19:20.654Z,18.92
2018-03-02T08:21:48.933Z,19.20
2018-03-02T08:24:16.408Z,17.85
2018-03-02T08:26:43.900Z,19.00
2018-03-02T08:29:11.383Z,17.62
2018-03-02T08:31:38.906Z,17.60
2018-03-02T08:34:06.350Z,18.30
2018-03-02T08:36:33.831Z,20.50
2018-03-02T08:39:01.298Z,20.15
2018-03-02T08:41:28.774Z,18.08
2018-03-02T08:43:57.014Z,17.92
2018-03-02T08:46:24.700Z,18.65
2018-03-02T08:48:52.184Z,18.30
2018-03-02T08:51:19.658Z,18.85
2018-03-02T08:53:47.126Z,17.65
2018-03-02T08:56:14.715Z,17.33
2018-03-02T08:58:42.183Z,17.55
2018-03-02T09:01:09.662Z,17.58
2018-03-02T09:03:37.908Z,17.90
2018-03-02T09:06:05.384Z,17.95
2018-03-02T09:08:33.627Z,19.42
2018-03-02T09:11:01.121Z,19.05
2018-03-02T09:13:29.407Z,17.65
2018-03-02T09:15:57.638Z,18.70
2018-03-02T09:18:25.118Z,17.30
2018-03-02T09:20:53.351Z,17.80
2018-03-02T09:23:20.838Z,17.55
2018-03-02T09:25:48.322Z,17.10
2018-03-02T09:28:16.575Z,17.73
2018-03-02T09:30:44.067Z,18.35
2018-03-02T09:33:11.563Z,18.90
2018-03-02T09:35:39.043Z,19.05
2018-03-02T09:38:06.563Z,17.45
2018-03-02T09:40:34.059Z,17.70
2018-03-02T09:43:01.522Z,17.02
2018-03-02T09:45:29.012Z,17.48
2018-03-02T09:47:56.511Z,17.52
2018-03-02T09:50:23.987Z,16.42
2018-03-02T09:52:51.478Z,16.98
2018-03-02T09:55:18.976Z,17.12
2018-03-02T09:57:46.451Z,17.65
2018-03-02T10:00:13.927Z,17.92
2018-03-02T10:02:42.194Z,18.02
2018-03-02T10:05:09.708Z,17.17
2018-03-02T10:07:37.171Z,17.33
2018-03-02T10:10:04.898Z,17.67
2018-03-02T10:12:32.387Z,19.08
2018-03-02T10:14:59.866Z,17.75
2018-03-02T10:17:27.355Z,18.42
2018-03-02T10:19:54.837Z,17.73
2018-03-02T10:22:22.312Z,17.85
2018-03-02T10:24:49.786Z,20.20
2018-03-02T10:27:17.255Z,18.17
2018-03-02T10:29:44.727Z,17.50
2018-03-02T10:32:12.240Z,18.00
2018-03-02T10:34:40.455Z,17.93
2018-03-02T10:37:07.932Z,18.60
2018-03-02T10:39:35.412Z,19.17
2018-03-02T10:42:02.899Z,17.80
2018-03-02T10:44:30.498Z,19.07
2018-03-02T10:46:58.318Z,16.97
2018-03-02T10:49:25.816Z,17.43
2018-03-02T10:51:53.299Z,17.97
2018-03-02T10:54:20.831Z,17.30
2018-03-02T10:56:48.329Z,18.20
2018-03-02T10:59:15.803Z,18.17
2018-03-02T11:01:48.915Z,18.67
2018-03-02T11:04:18.256Z,18.90
2018-03-02T11:06:47.153Z,17.80
2018-03-02T11:09:14.649Z,18.02
2018-03-02T11:11:42.122Z,18.87
2018-03-02T11:14:09.614Z,18.53
2018-03-02T11:16:37.889Z,19.20
2018-03-02T11:19:06.128Z,18.60
2018-03-02T11:21:33.606Z,18.20
2018-03-02T11:24:01.103Z,18.63
2018-03-02T11:26:28.582Z,18.80
2018-03-02T11:28:56.262Z,18.87
2018-03-02T11:31:23.764Z,18.07
2018-03-02T11:33:51.995Z,19.63
2018-03-02T11:36:19.462Z,19.60
2018-03-02T11:38:46.943Z,19.60
2018-03-02T11:41:15.174Z,18.47
2018-03-02T11:43:42.634Z,18.40
2018-03-02T11:46:10.118Z,18.30
2018-03-02T11:48:37.578Z,17.93
2018-03-02T11:51:06.028Z,18.67
2018-03-02T11:53:33.500Z,19.70
2018-03-02T11:56:00.975Z,17.37
2018-03-02T11:58:29.706Z,17.30
2018-03-02T12:00:57.212Z,19.30
2018-03-02T12:03:25.480Z,19.20
2018-03-02T12:05:52.952Z,19.20
2018-03-02T12:08:21.198Z,18.40
2018-03-02T12:10:48.667Z,19.57
2018-03-02T12:13:16.523Z,18.63
2018-03-02T12:15:43.992Z,18.90
2018-03-02T12:18:11.510Z,19.73
2018-03-02T12:20:38.976Z,21.30
2018-03-02T12:23:07.079Z,20.37
2018-03-02T12:25:35.348Z,19.27
2018-03-02T12:28:03.694Z,19.20
2018-03-02T12:30:31.562Z,19.00
2018-03-02T12:32:59.334Z,20.73
2018-03-02T12:35:26.838Z,18.80
2018-03-02T12:37:55.082Z,20.57
2018-03-02T12:40:22.563Z,22.40
2018-03-02T12:42:50.019Z,20.53
2018-03-02T12:45:17.504Z,20.90
2018-03-02T12:47:44.988Z,22.03
2018-03-02T12:50:12.479Z,22.70
2018-03-02T12:52:39.986Z,19.93
2018-03-02T12:55:07.521Z,21.77
2018-03-02T12:57:34.939Z,21.50
2018-03-02T13:00:02.432Z,21.57
2018-03-02T13:02:30.654Z,20.30
2018-03-02T13:04:58.120Z,20.47
2018-03-02T13:07:25.614Z,20.80
2018-03-02T13:09:54.148Z,21.17
2018-03-02T13:12:21.620Z,23.17
2018-03-02T13:14:49.081Z,21.30
2018-03-02T13:17:16.569Z,21.30
2018-03-02T13:19:44.798Z,21.40
2018-03-02T13:22:24.186Z,19.97
2018-03-02T13:24:52.415Z,21.07
2018-03-02T13:27:45.407Z,19.80
2018-03-02T13:30:13.670Z,20.00
2018-03-02T13:32:41.136Z,21.30
2018-03-02T13:35:10.222Z,19.10
2018-03-02T13:37:37.706Z,20.70
2018-03-02T13:40:17.877Z,22.40
2018-03-02T13:42:45.336Z,19.77
2018-03-02T13:45:12.795Z,21.70
2018-03-02T13:50:53.298Z,20.47
2018-03-02T13:53:20.758Z,19.73
2018-03-02T13:55:48.227Z,22.00
2018-03-02T13:58:15.698Z,20.93
2018-03-02T14:00:43.162Z,21.43
2018-03-02T14:03:22.530Z,20.40
2018-03-02T14:05:50.004Z,21.37
2018-03-02T14:08:17.471Z,22.00
2018-03-02T14:10:45.239Z,23.00
2018-03-02T14:13:12.695Z,22.00
2018-03-02T14:15:40.170Z,21.63
2018-03-02T14:18:08.311Z,22.63
2018-03-02T14:20:35.786Z,23.30
2018-03-02T14:23:03.247Z,23.47
2018-03-02T14:25:30.720Z,22.80
2018-03-02T14:27:58.895Z,23.53
2018-03-02T14:30:27.178Z,22.73
2018-03-02T14:32:54.604Z,23.30
2018-03-02T14:35:22.071Z,22.43
2018-03-02T14:37:49.530Z,25.10
2018-03-02T14:40:17.026Z,22.53
2018-03-02T14:42:45.254Z,24.50
2018-03-02T14:45:13.010Z,28.10
2018-03-02T14:47:40.523Z,29.97
2018-03-02T14:50:08.754Z,30.77
2018-03-02T14:52:36.287Z,33.23
2018-03-02T14:55:03.782Z,33.80
2018-03-02T14:57:31.267Z,32.13
2018-03-02T14:59:59.554Z,28.97
2018-03-02T15:02:27.662Z,28.80
2018-03-02T15:04:55.440Z,25.77
2018-03-02T15:07:22.907Z,24.23
2018-03-02T15:09:50.391Z,23.40
2018-03-02T15:12:18.633Z,24.23
2018-03-02T15:14:46.107Z,23.60
2018-03-02T15:17:13.951Z,23.77
2018-03-02T15:19:41.434Z,23.27
2018-03-02T15:22:08.902Z,24.73
2018-03-02T15:24:38.755Z,23.07
2018-03-02T15:27:06.251Z,25.03
2018-03-02T15:29:33.706Z,23.83
2018-03-02T15:32:01.187Z,23.07
2018-03-02T15:34:29.439Z,23.67
2018-03-02T15:36:57.531Z,22.73
2018-03-02T15:39:25.767Z,22.50
2018-03-02T15:41:53.246Z,22.43
2018-03-02T15:44:20.727Z,21.77
2018-03-02T15:46:48.967Z,23.70
2018-03-02T15:49:16.476Z,21.53
2018-03-02T15:51:43.959Z,23.77
2018-03-02T15:54:11.423Z,23.23
2018-03-02T15:56:38.906Z,23.53
2018-03-02T15:59:07.316Z,21.43
2018-03-02T16:01:35.565Z,22.37
2018-03-02T16:04:03.256Z,22.40
2018-03-02T16:06:31.514Z,23.40
2018-03-02T16:08:59.767Z,23.40
2018-03-02T16:11:27.514Z,23.40
2018-03-02T16:13:55.000Z,22.37
2018-03-02T16:16:22.504Z,24.13
2018-03-02T16:18:49.980Z,23.90
2018-03-02T16:21:17.477Z,22.80
2018-03-02T16:23:45.728Z,22.97
2018-03-02T16:26:13.210Z,24.87
2018-03-02T16:28:40.707Z,24.27
2018-03-02T16:31:08.202Z,25.03
2018-03-02T16:33:36.040Z,23.80
2018-03-02T16:36:03.564Z,24.37
2018-03-02T16:38:31.068Z,23.77
2018-03-02T16:40:58.551Z,23.70
2018-03-02T16:43:26.047Z,22.67
2018-03-02T16:45:53.612Z,24.30
2018-03-02T16:48:21.832Z,24.33
2018-03-02T16:50:49.671Z,22.50
2018-03-02T16:53:17.528Z,25.07
2018-03-02T16:55:45.008Z,23.03
2018-03-02T16:58:12.510Z,24.20
2018-03-02T17:00:40.762Z,25.17
2018-03-02T17:03:09.038Z,24.40
2018-03-02T17:05:37.427Z,23.63
2018-03-02T17:08:04.892Z,24.23
2018-03-02T17:10:33.537Z,24.90
2018-03-02T17:13:01.215Z,22.47
2018-03-02T17:15:28.683Z,24.37
2018-03-02T17:17:56.396Z,25.50
2018-03-02T17:20:23.887Z,25.77
2018-03-02T17:22:51.371Z,24.17
2018-03-02T17:25:19.662Z,26.13
2018-03-02T17:27:47.378Z,25.67
2018-03-02T17:30:14.863Z,25.40
2018-03-02T17:32:43.403Z,25.37
2018-03-02T17:35:10.891Z,24.07
2018-03-02T17:37:39.130Z,29.30
2018-03-02T17:40:06.644Z,26.50
2018-03-02T17:42:35.138Z,23.13
2018-03-02T17:45:02.651Z,25.63
2018-03-02T17:47:30.130Z,28.50
2018-03-02T17:49:58.391Z,28.33
2018-03-02T17:52:25.869Z,28.15
2018-03-02T17:54:53.450Z,36.55
2018-03-02T17:57:20.949Z,32.40
2018-03-02T17:59:48.480Z,32.20
2018-03-02T18:02:15.971Z,26.53
2018-03-02T18:04:43.439Z,27.20
2018-03-02T18:07:10.976Z,29.53
2018-03-02T18:09:38.459Z,26.63
2018-03-02T18:12:05.928Z,29.17
2018-03-02T18:14:34.183Z,25.60
2018-03-02T18:17:01.679Z,25.60
2018-03-02T18:19:29.170Z,26.20
2018-03-02T18:21:56.679Z,28.97
2018-03-02T18:24:24.935Z,29.70
2018-03-02T18:26:52.411Z,27.80
2018-03-02T18:29:20.650Z,27.93
2018-03-02T18:31:48.182Z,29.40
2018-03-02T18:34:15.662Z,29.63
2018-03-02T18:36:43.136Z,27.90
2018-03-02T18:39:10.623Z,28.93
2018-03-02T18:41:38.867Z,29.77
2018-03-02T18:44:06.344Z,26.80
2018-03-02T18:46:34.604Z,29.00
2018-03-02T18:49:02.070Z,26.20
2018-03-02T18:51:29.527Z,29.57
2018-03-02T18:53:57.023Z,29.13
2018-03-02T18:56:24.504Z,27.93
2018-03-02T18:58:52.766Z,25.83
2018-03-02T19:01:20.264Z,28.10
2018-03-02T19:03:47.734Z,27.10
2018-03-02T19:06:15.203Z,26.70
2018-03-02T19:08:43.454Z,26.03
2018-03-02T19:11:10.936Z,25.20
2018-03-02T19:13:39.203Z,28.30
2018-03-02T19:16:07.455Z,28.47
2018-03-02T19:18:34.929Z,27.10
2018-03-02T19:21:03.188Z,28.40
2018-03-02T19:23:30.662Z,26.77
2018-03-02T19:25:58.926Z,27.87
2018-03-02T19:28:26.402Z,28.17
2018-03-02T19:30:53.912Z,29.97
2018-03-02T19:33:21.393Z,29.83
2018-03-02T19:35:48.867Z,25.93
2018-03-02T19:38:17.128Z,27.10
2018-03-02T19:40:45.105Z,27.17
2018-03-02T19:43:12.611Z,26.33
2018-03-02T19:45:40.120Z,27.57
2018-03-02T19:48:07.586Z,29.90
2018-03-02T19:50:35.863Z,30.17
2018-03-02T19:53:03.358Z,29.37
2018-03-02T19:55:31.048Z,28.17
2018-03-02T19:57:58.547Z,26.90
2018-03-02T20:00:26.832Z,28.43
2018-03-02T20:02:54.331Z,27.90
2018-03-02T20:05:21.827Z,26.30
2018-03-02T20:07:49.291Z,27.57
2018-03-02T20:10:16.759Z,29.87
2018-03-02T20:12:45.950Z,29.20
2018-03-02T20:15:14.189Z,28.23
2018-03-02T20:17:41.657Z,27.00
2018-03-02T20:20:09.143Z,28.30
2018-03-02T20:22:37.387Z,26.13
2018-03-02T20:25:05.577Z,27.30
2018-03-02T20:27:33.830Z,26.57
2018-03-02T20:30:01.295Z,26.37
2018-03-02T20:32:28.759Z,28.20
2018-03-02T20:34:56.260Z,25.57
2018-03-02T20:37:23.726Z,26.97
2018-03-02T20:39:51.207Z,28.60
2018-03-02T20:42:18.722Z,28.73
2018-03-02T20:44:46.207Z,28.60
2018-03-02T20:47:13.770Z,28.43
2018-03-02T20:49:42.111Z,28.10
2018-03-02T20:52:09.600Z,26.67
2018-03-02T20:54:37.116Z,28.63
2018-03-02T20:57:05.349Z,29.40
2018-03-02T20:59:32.823Z,30.43
2018-03-02T21:02:00.308Z,28.80
2018-03-02T21:04:28.580Z,27.30
2018-03-02T21:06:57.694Z,28.90
2018-03-02T21:09:25.171Z,30.13
2018-03-02T21:11:52.626Z,28.90
2018-03-02T21:14:20.113Z,30.10
2018-03-02T21:16:47.632Z,29.80
2018-03-02T21:19:15.106Z,29.27
2018-03-02T21:21:42.589Z,28.07
2018-03-02T21:24:10.080Z,29.03
2018-03-02T21:26:38.330Z,28.83
2018-03-02T21:29:05.792Z,29.57
2018-03-02T21:31:33.280Z,29.03
2018-03-02T21:34:01.856Z,29.67
2018-03-02T21:36:29.328Z,30.60
2018-03-02T21:38:56.850Z,29.30
2018-03-02T21:41:25.081Z,30.67
2018-03-02T21:43:52.547Z,29.83
2018-03-02T21:46:20.031Z,29.27
2018-03-02T21:48:47.516Z,28.70
2018-03-02T21:51:14.982Z,31.05
2018-03-02T21:53:42.483Z,32.67
2018-03-02T21:56:10.239Z,30.47
2018-03-02T21:58:37.720Z,29.65
2018-03-02T22:01:05.207Z,31.48
2018-03-02T22:03:32.681Z,31.07
2018-03-02T22:06:00.515Z,30.52
2018-03-02T22:08:28.787Z,30.97
2018-03-02T22:10:57.024Z,30.57
2018-03-02T22:13:25.506Z,31.73
2018-03-02T22:15:53.017Z,31.77
2018-03-02T22:18:20.515Z,31.97
2018-03-02T22:20:47.992Z,31.33
2018-03-02T22:23:15.500Z,32.57
2018-03-02T22:25:42.979Z,32.08
2018-03-02T22:28:10.439Z,32.63
2018-03-02T22:30:37.958Z,31.73
2018-03-02T22:33:05.461Z,30.75
2018-03-02T22:35:32.927Z,34.67
2018-03-02T22:38:00.414Z,31.03
2018-03-02T22:40:29.297Z,32.60
2018-03-02T22:42:58.442Z,32.85
2018-03-02T22:45:25.927Z,32.50
2018-03-02T22:47:53.393Z,33.97
2018-03-02T22:50:20.867Z,32.13
2018-03-02T22:52:48.385Z,33.10
2018-03-02T22:55:15.862Z,32.40
2018-03-02T22:57:43.339Z,31.58
2018-03-02T23:00:10.822Z,31.63
2018-03-02T23:02:39.095Z,33.17
2018-03-02T23:05:06.584Z,33.97
2018-03-02T23:07:34.062Z,35.07
2018-03-02T23:10:01.547Z,32.10
2018-03-02T23:12:29.012Z,34.30
2018-03-02T23:14:57.287Z,32.80
2018-03-02T23:17:25.746Z,33.37
2018-03-02T23:19:53.227Z,32.90
2018-03-02T23:22:21.467Z,33.07
2018-03-02T23:24:48.933Z,32.63
2018-03-02T23:27:16.420Z,33.20
2018-03-02T23:29:44.702Z,32.67
2018-03-02T23:32:12.902Z,32.23
2018-03-02T23:34:40.676Z,33.83
2018-03-02T23:37:08.172Z,34.90
2018-03-02T23:39:35.707Z,33.60
2018-03-02T23:42:03.170Z,34.87
2018-03-02T23:44:30.650Z,34.97
2018-03-02T23:46:58.878Z,35.07
2018-03-02T23:49:26.356Z,33.80
2018-03-02T23:51:54.780Z,33.93
2018-03-02T23:54:22.264Z,35.07
2018-03-02T23:56:49.746Z,33.83
2018-03-02T23:59:17.231Z,34.63
